createdAt,value
2022-12-31T00:00:00.843Z,4.43
2022-12-31T00:01:33.286Z,4.44
2022-12-31T00:03:10.242Z,4.42
2022-12-31T00:04:42.499Z,4.46
2022-12-31T00:06:20.284Z,4.43
2022-12-31T00:07:52.428Z,4.39
2022-12-31T00:09:24.548Z,4.45
2022-12-31T00:10:56.630Z,4.47
2022-12-31T00:12:28.754Z,4.47
2022-12-31T00:14:01.514Z,4.46
2022-12-31T00:15:33.674Z,4.47
2022-12-31T00:17:05.774Z,4.51
2022-12-31T00:18:38.646Z,4.50
2022-12-31T00:20:10.997Z,4.49
2022-12-31T00:21:43.626Z,4.49
2022-12-31T00:23:15.714Z,4.52
2022-12-31T00:24:47.831Z,4.47
2022-12-31T00:26:22.444Z,4.52
2022-12-31T00:27:55.754Z,4.48
2022-12-31T00:29:27.879Z,4.48
2022-12-31T00:31:10.654Z,4.48
2022-12-31T00:32:43.201Z,4.49
2022-12-31T00:34:15.436Z,4.47
2022-12-31T00:35:47.679Z,4.48
2022-12-31T00:37:19.838Z,4.47
2022-12-31T00:38:53.785Z,4.46
2022-12-31T00:40:26.037Z,4.48
2022-12-31T00:41:58.095Z,4.49
2022-12-31T00:43:30.259Z,4.52
2022-12-31T00:45:02.329Z,4.52
2022-12-31T00:48:06.560Z,4.48
2022-12-31T00:49:38.779Z,4.53
2022-12-31T00:51:14.274Z,4.51
2022-12-31T00:52:46.448Z,4.49
2022-12-31T00:54:18.499Z,4.51
2022-12-31T00:55:50.763Z,4.49
2022-12-31T00:57:22.897Z,4.52
2022-12-31T00:58:55.411Z,4.52
2022-12-31T01:00:27.421Z,4.49
2022-12-31T01:01:59.616Z,4.52
2022-12-31T01:03:31.827Z,4.49
2022-12-31T01:05:04.265Z,4.48
2022-12-31T01:06:36.847Z,4.51
2022-12-31T01:08:08.988Z,4.50
2022-12-31T01:09:41.132Z,4.53
2022-12-31T01:11:19.204Z,4.55
2022-12-31T01:12:51.339Z,4.54
2022-12-31T01:14:23.543Z,4.58
2022-12-31T01:15:55.707Z,4.54
2022-12-31T01:17:28.176Z,4.57
2022-12-31T01:19:02.407Z,4.52
2022-12-31T01:20:39.441Z,4.56
2022-12-31T01:22:11.479Z,4.56
2022-12-31T01:23:43.809Z,4.56
2022-12-31T01:25:15.895Z,4.56
2022-12-31T01:26:48.209Z,4.55
2022-12-31T01:28:20.293Z,4.57
2022-12-31T01:29:52.321Z,4.57
2022-12-31T01:31:25.824Z,4.58
2022-12-31T01:32:58.193Z,4.53
2022-12-31T01:34:30.324Z,4.55
2022-12-31T01:36:23.351Z,4.54
2022-12-31T01:37:57.517Z,4.54
2022-12-31T01:39:29.596Z,4.58
2022-12-31T01:41:02.645Z,4.59
2022-12-31T01:42:34.716Z,4.54
2022-12-31T01:44:12.863Z,4.54
2022-12-31T01:45:49.449Z,4.57
2022-12-31T01:47:47.183Z,4.53
2022-12-31T01:49:38.833Z,4.53
2022-12-31T01:51:11.146Z,4.52
2022-12-31T01:52:48.377Z,4.52
2022-12-31T01:54:22.617Z,4.53
2022-12-31T01:55:59.458Z,4.49
2022-12-31T01:57:32.147Z,4.48
2022-12-31T01:59:08.587Z,4.49
2022-12-31T02:00:40.724Z,4.54
2022-12-31T02:02:15.273Z,4.53
2022-12-31T02:03:47.501Z,4.52
2022-12-31T02:05:42.985Z,4.47
2022-12-31T02:07:15.147Z,4.52
2022-12-31T02:08:48.173Z,4.52
2022-12-31T02:10:20.229Z,4.53
2022-12-31T02:11:52.449Z,4.55
2022-12-31T02:13:24.767Z,4.57
2022-12-31T02:14:56.954Z,4.55
2022-12-31T02:16:35.163Z,4.57
2022-12-31T02:18:24.653Z,4.56
2022-12-31T02:20:27.261Z,4.61
2022-12-31T02:22:05.384Z,4.62
2022-12-31T02:24:12.623Z,4.61
2022-12-31T02:25:56.013Z,4.64
2022-12-31T02:27:41.997Z,4.61
2022-12-31T02:29:45.768Z,4.60
2022-12-31T02:31:30.170Z,4.65
2022-12-31T02:33:19.721Z,4.65
2022-12-31T02:34:58.135Z,4.69
2022-12-31T02:36:34.868Z,4.69
2022-12-31T02:38:13.386Z,4.70
2022-12-31T02:39:46.101Z,4.69
2022-12-31T02:41:38.887Z,4.71
2022-12-31T02:43:10.916Z,4.69
2022-12-31T02:44:43.445Z,4.67
2022-12-31T02:47:13.523Z,4.71
2022-12-31T02:49:27.775Z,4.73
2022-12-31T02:51:05.795Z,4.70
2022-12-31T02:53:02.279Z,4.73
2022-12-31T02:54:49.411Z,4.72
2022-12-31T02:56:21.451Z,4.74
2022-12-31T02:58:17.116Z,4.74
2022-12-31T03:00:19.965Z,4.70
2022-12-31T03:02:16.291Z,4.73
2022-12-31T03:03:48.769Z,4.73
2022-12-31T03:05:25.117Z,4.77
2022-12-31T03:06:57.853Z,4.75
2022-12-31T03:08:30.390Z,4.78
2022-12-31T03:10:02.621Z,4.76
2022-12-31T03:11:53.610Z,4.80
2022-12-31T03:13:25.670Z,4.78
2022-12-31T03:14:58.116Z,4.78
2022-12-31T03:16:30.302Z,4.77
2022-12-31T03:18:06.691Z,4.79
2022-12-31T03:19:59.104Z,4.79
2022-12-31T03:21:50.134Z,4.76
2022-12-31T03:23:50.287Z,4.78
2022-12-31T03:25:35.172Z,4.79
2022-12-31T03:27:07.251Z,4.79
2022-12-31T03:28:47.845Z,4.84
2022-12-31T03:30:21.827Z,4.83
2022-12-31T03:31:53.929Z,4.83
2022-12-31T03:33:30.276Z,4.83
2022-12-31T03:35:02.334Z,4.89
2022-12-31T03:36:34.521Z,4.88
2022-12-31T03:38:07.924Z,4.91
2022-12-31T03:39:40.119Z,4.88
2022-12-31T03:41:12.220Z,4.89
2022-12-31T03:42:44.423Z,4.83
2022-12-31T03:44:16.554Z,4.82
2022-12-31T03:45:53.320Z,4.83
2022-12-31T03:47:25.514Z,4.81
2022-12-31T03:48:57.542Z,4.87
2022-12-31T03:50:29.816Z,4.81
2022-12-31T03:52:03.608Z,4.82
2022-12-31T03:53:36.163Z,4.84
2022-12-31T03:55:09.878Z,4.86
2022-12-31T03:56:42.038Z,4.84
2022-12-31T03:58:14.108Z,4.81
2022-12-31T03:59:47.462Z,4.82
2022-12-31T04:01:19.750Z,4.81
2022-12-31T04:02:52.369Z,4.83
2022-12-31T04:04:24.448Z,4.83
2022-12-31T04:05:57.047Z,4.84
2022-12-31T04:07:29.116Z,4.80
2022-12-31T04:09:01.263Z,4.83
2022-12-31T04:10:33.333Z,4.80
2022-12-31T04:12:05.820Z,4.80
2022-12-31T04:13:37.968Z,4.83
2022-12-31T04:15:15.491Z,4.83
2022-12-31T04:16:47.629Z,4.79
2022-12-31T04:18:19.779Z,4.82
2022-12-31T04:19:51.925Z,4.82
2022-12-31T04:21:24.098Z,4.82
2022-12-31T04:22:56.171Z,4.77
2022-12-31T04:24:28.396Z,4.82
2022-12-31T04:26:00.452Z,4.79
2022-12-31T04:27:32.584Z,4.77
2022-12-31T04:29:05.090Z,4.78
2022-12-31T04:30:37.186Z,4.77
2022-12-31T04:32:09.867Z,4.78
2022-12-31T04:33:42.050Z,4.81
2022-12-31T04:35:14.199Z,4.83
2022-12-31T04:36:46.376Z,4.85
2022-12-31T04:38:18.417Z,4.88
2022-12-31T04:39:50.536Z,4.87
2022-12-31T04:41:23.965Z,4.87
2022-12-31T04:42:56.175Z,4.85
2022-12-31T04:44:28.324Z,4.87
2022-12-31T04:46:00.466Z,4.89
2022-12-31T04:47:32.595Z,4.84
2022-12-31T04:49:05.034Z,4.86
2022-12-31T04:50:37.100Z,4.86
2022-12-31T04:52:09.280Z,4.88
2022-12-31T04:53:42.060Z,4.88
2022-12-31T04:55:14.169Z,4.89
2022-12-31T04:56:46.209Z,4.91
2022-12-31T04:58:18.872Z,4.91
2022-12-31T04:59:50.930Z,4.90
2022-12-31T05:01:23.649Z,4.93
2022-12-31T05:02:55.831Z,4.95
2022-12-31T05:04:28.084Z,4.88
2022-12-31T05:06:05.674Z,4.90
2022-12-31T05:07:37.787Z,4.91
2022-12-31T05:09:09.864Z,4.93
2022-12-31T05:10:47.350Z,4.94
2022-12-31T05:12:21.980Z,4.94
2022-12-31T05:13:54.069Z,4.90
2022-12-31T05:15:26.154Z,4.88
2022-12-31T05:16:59.373Z,4.88
2022-12-31T05:18:33.459Z,4.90
2022-12-31T05:20:06.134Z,4.88
2022-12-31T05:21:38.379Z,4.85
2022-12-31T05:23:10.942Z,4.85
2022-12-31T05:24:42.948Z,4.84
2022-12-31T05:26:15.355Z,4.87
2022-12-31T05:27:47.560Z,4.85
2022-12-31T05:29:19.691Z,4.86
2022-12-31T05:30:52.551Z,4.87
2022-12-31T05:32:24.619Z,4.88
2022-12-31T05:33:56.932Z,4.84
2022-12-31T05:35:29.143Z,4.84
2022-12-31T05:37:01.187Z,4.85
2022-12-31T05:38:33.682Z,4.82
2022-12-31T05:40:06.842Z,4.86
2022-12-31T05:41:38.919Z,4.83
2022-12-31T05:43:11.004Z,4.87
2022-12-31T05:44:43.188Z,4.87
2022-12-31T05:46:16.262Z,4.87
2022-12-31T05:47:48.593Z,4.83
2022-12-31T05:49:24.048Z,4.83
2022-12-31T05:50:56.260Z,4.83
2022-12-31T05:52:28.428Z,4.82
2022-12-31T05:54:00.703Z,4.82
2022-12-31T05:55:32.771Z,4.85
2022-12-31T05:57:05.478Z,4.85
2022-12-31T05:58:37.606Z,4.83
2022-12-31T06:00:10.678Z,4.88
2022-12-31T06:01:45.691Z,4.87
2022-12-31T06:03:17.879Z,4.86
2022-12-31T06:04:50.577Z,4.88
2022-12-31T06:06:22.737Z,4.91
2022-12-31T06:07:54.798Z,4.88
2022-12-31T06:09:27.752Z,4.88
2022-12-31T06:10:59.700Z,4.88
2022-12-31T06:12:31.795Z,4.90
2022-12-31T06:14:03.926Z,4.89
2022-12-31T06:15:40.068Z,4.89
2022-12-31T06:17:12.362Z,4.93
2022-12-31T06:18:47.517Z,4.96
2022-12-31T06:20:19.879Z,4.96
2022-12-31T06:21:51.987Z,4.98
2022-12-31T06:23:24.101Z,4.98
2022-12-31T06:24:56.235Z,4.99
2022-12-31T06:26:28.735Z,5.03
2022-12-31T06:28:00.814Z,5.04
2022-12-31T06:29:32.895Z,5.03
2022-12-31T06:31:08.048Z,5.05
2022-12-31T06:32:40.812Z,5.04
2022-12-31T06:34:13.012Z,5.04
2022-12-31T06:35:45.068Z,5.05
2022-12-31T06:37:17.133Z,5.07
2022-12-31T06:38:49.361Z,5.04
2022-12-31T06:40:21.508Z,5.06
2022-12-31T06:41:54.078Z,5.10
2022-12-31T06:43:26.172Z,5.11
2022-12-31T06:44:59.045Z,5.11
2022-12-31T06:46:31.249Z,5.11
2022-12-31T06:48:03.459Z,5.14
2022-12-31T06:49:35.560Z,5.13
2022-12-31T06:51:16.563Z,5.12
2022-12-31T06:52:49.283Z,5.13
2022-12-31T06:54:21.627Z,5.16
2022-12-31T06:55:54.296Z,5.14
2022-12-31T06:57:27.142Z,5.11
2022-12-31T06:59:00.377Z,5.12
2022-12-31T07:00:32.700Z,5.12
2022-12-31T07:02:48.205Z,5.10
2022-12-31T07:04:59.091Z,5.10
2022-12-31T07:06:35.774Z,5.13
2022-12-31T07:08:20.056Z,5.16
2022-12-31T07:10:30.823Z,5.20
2022-12-31T07:12:25.011Z,5.21
2022-12-31T07:14:08.370Z,5.21
2022-12-31T07:16:14.533Z,5.20
2022-12-31T07:17:58.653Z,5.16
2022-12-31T07:19:57.645Z,5.17
2022-12-31T07:21:39.022Z,5.14
2022-12-31T07:23:11.432Z,5.15
2022-12-31T07:24:44.488Z,5.13
2022-12-31T07:26:31.483Z,5.13
2022-12-31T07:28:17.691Z,5.13
2022-12-31T07:30:02.044Z,5.14
2022-12-31T07:32:16.514Z,5.18
2022-12-31T07:33:48.572Z,5.20
2022-12-31T07:35:44.827Z,5.20
2022-12-31T07:37:46.366Z,5.20
2022-12-31T07:39:30.082Z,5.21
2022-12-31T07:41:16.946Z,5.22
2022-12-31T07:42:51.644Z,5.25
2022-12-31T07:44:47.343Z,5.25
2022-12-31T07:46:35.824Z,5.27
2022-12-31T07:48:26.725Z,5.26
2022-12-31T07:49:59.154Z,5.22
2022-12-31T07:51:31.451Z,5.20
2022-12-31T07:53:03.743Z,5.15
2022-12-31T07:54:36.129Z,5.16
2022-12-31T07:56:09.865Z,5.18
2022-12-31T07:58:07.353Z,5.20
2022-12-31T08:00:04.297Z,5.19
2022-12-31T08:01:54.221Z,5.18
2022-12-31T08:03:54.608Z,5.18
2022-12-31T08:05:29.514Z,5.18
2022-12-31T08:07:15.233Z,5.19
2022-12-31T08:08:50.287Z,5.20
2022-12-31T08:10:37.906Z,5.22
2022-12-31T08:12:10.227Z,5.20
2022-12-31T08:13:42.872Z,5.21
2022-12-31T08:15:17.338Z,5.24
2022-12-31T08:16:49.978Z,5.29
2022-12-31T08:18:22.298Z,5.36
2022-12-31T08:19:54.706Z,5.36
2022-12-31T08:21:57.215Z,5.37
2022-12-31T08:23:40.905Z,5.40
2022-12-31T08:25:15.704Z,5.38
2022-12-31T08:26:57.275Z,5.38
2022-12-31T08:29:01.653Z,5.41
2022-12-31T08:30:57.250Z,5.37
2022-12-31T08:32:36.991Z,5.36
2022-12-31T08:34:23.834Z,5.34
2022-12-31T08:36:23.148Z,5.34
2022-12-31T08:38:04.328Z,5.39
2022-12-31T08:39:41.402Z,5.42
2022-12-31T08:41:42.441Z,5.39
2022-12-31T08:43:40.479Z,5.41
2022-12-31T08:45:33.409Z,5.41
2022-12-31T08:47:27.079Z,5.45
2022-12-31T08:48:59.430Z,5.49
2022-12-31T08:50:31.912Z,5.48
2022-12-31T08:52:04.445Z,5.52
2022-12-31T08:53:36.950Z,5.52
2022-12-31T08:55:17.432Z,5.56
2022-12-31T08:56:56.833Z,5.62
2022-12-31T08:58:43.937Z,5.64
2022-12-31T09:00:18.911Z,5.66
2022-12-31T09:02:24.563Z,5.67
2022-12-31T09:04:18.299Z,5.72
2022-12-31T09:06:02.513Z,5.75
2022-12-31T09:07:38.663Z,5.76
2022-12-31T09:09:15.955Z,5.78
2022-12-31T09:11:00.744Z,5.85
2022-12-31T09:12:50.058Z,5.90
2022-12-31T09:14:42.855Z,5.91
2022-12-31T09:16:27.680Z,5.96
2022-12-31T09:18:00.240Z,5.98
2022-12-31T09:19:32.342Z,6.00
2022-12-31T09:21:04.771Z,6.06
2022-12-31T09:22:37.088Z,6.18
2022-12-31T09:24:12.082Z,6.27
2022-12-31T09:25:57.640Z,6.28
2022-12-31T09:27:58.016Z,6.33
2022-12-31T09:29:57.535Z,6.42
2022-12-31T09:31:48.323Z,6.40
2022-12-31T09:33:50.195Z,6.44
2022-12-31T09:35:39.528Z,6.50
2022-12-31T09:37:48.777Z,6.56
2022-12-31T09:39:23.867Z,6.60
2022-12-31T09:41:28.469Z,6.58
2022-12-31T09:43:26.329Z,6.59
2022-12-31T09:45:19.421Z,6.63
2022-12-31T09:47:03.572Z,6.66
2022-12-31T09:49:20.807Z,6.67
2022-12-31T09:51:16.321Z,6.70
2022-12-31T09:53:34.368Z,6.77
2022-12-31T09:55:12.335Z,6.84
2022-12-31T09:56:57.133Z,6.86
2022-12-31T09:58:36.962Z,6.84
2022-12-31T10:00:11.950Z,6.77
2022-12-31T10:02:40.831Z,6.73
2022-12-31T10:04:43.860Z,6.68
2022-12-31T10:06:27.101Z,6.69
2022-12-31T10:08:14.936Z,6.65
2022-12-31T10:10:01.638Z,6.70
2022-12-31T10:12:11.593Z,6.81
2022-12-31T10:14:08.251Z,6.81
2022-12-31T10:16:08.054Z,6.86
2022-12-31T10:17:49.020Z,6.87
2022-12-31T10:19:42.475Z,6.88
2022-12-31T10:21:36.028Z,6.88
2022-12-31T10:23:26.057Z,6.89
2022-12-31T10:25:07.313Z,6.86
2022-12-31T10:26:53.426Z,6.82
2022-12-31T10:28:45.576Z,6.81
2022-12-31T10:30:20.636Z,6.79
2022-12-31T10:31:58.493Z,6.77
2022-12-31T10:34:05.641Z,6.75
2022-12-31T10:35:43.601Z,6.85
2022-12-31T10:37:23.655Z,6.82
2022-12-31T10:39:12.826Z,6.79
2022-12-31T10:41:27.678Z,6.79
2022-12-31T10:43:44.929Z,6.86
2022-12-31T10:45:20.049Z,6.87
2022-12-31T10:47:29.757Z,6.84
2022-12-31T10:49:07.611Z,6.86
2022-12-31T10:51:11.855Z,6.84
2022-12-31T10:52:49.572Z,6.78
2022-12-31T10:54:33.835Z,6.77
2022-12-31T10:56:11.818Z,6.81
2022-12-31T10:57:51.763Z,6.90
2022-12-31T10:59:41.937Z,6.86
2022-12-31T11:01:14.417Z,6.88
2022-12-31T11:03:05.618Z,6.91
2022-12-31T11:05:12.947Z,7.01
2022-12-31T11:07:19.434Z,7.13
2022-12-31T11:09:25.545Z,7.07
2022-12-31T11:11:36.116Z,7.06
2022-12-31T11:13:38.989Z,7.06
2022-12-31T11:15:32.155Z,7.04
2022-12-31T11:17:22.300Z,7.03
2022-12-31T11:19:21.625Z,7.04
2022-12-31T11:21:28.419Z,7.11
2022-12-31T11:23:37.399Z,7.24
2022-12-31T11:25:12.950Z,7.43
2022-12-31T11:27:18.897Z,7.50
2022-12-31T11:29:03.821Z,7.65
2022-12-31T11:30:49.373Z,7.68
2022-12-31T11:32:40.008Z,7.69
2022-12-31T11:34:24.356Z,7.69
2022-12-31T11:36:14.897Z,7.67
2022-12-31T11:38:10.583Z,7.63
2022-12-31T11:40:01.288Z,7.61
2022-12-31T11:42:18.543Z,7.61
2022-12-31T11:44:16.812Z,7.57
2022-12-31T11:46:10.201Z,7.64
2022-12-31T11:50:13.648Z,7.51
2022-12-31T11:52:21.452Z,7.45
2022-12-31T11:54:30.166Z,7.34
2022-12-31T11:56:20.642Z,7.24
2022-12-31T11:57:53.474Z,7.20
2022-12-31T11:59:25.639Z,7.26
2022-12-31T12:01:04.786Z,7.28
2022-12-31T12:02:45.759Z,7.33
2022-12-31T12:04:18.089Z,7.35
2022-12-31T12:05:50.486Z,7.37
2022-12-31T12:07:24.169Z,7.35
2022-12-31T12:09:01.678Z,7.38
2022-12-31T12:10:44.228Z,7.43
2022-12-31T12:12:16.529Z,7.48
2022-12-31T12:13:48.727Z,7.51
2022-12-31T12:15:42.840Z,7.53
2022-12-31T12:17:22.356Z,7.67
2022-12-31T12:19:16.373Z,7.86
2022-12-31T12:20:48.618Z,8.02
2022-12-31T12:22:28.435Z,7.98
2022-12-31T12:24:17.461Z,7.94
2022-12-31T12:25:50.334Z,7.85
2022-12-31T12:27:25.038Z,7.81
2022-12-31T12:29:01.504Z,7.87
2022-12-31T12:30:41.413Z,7.86
2022-12-31T12:32:17.515Z,7.90
2022-12-31T12:33:52.142Z,7.87
2022-12-31T12:35:35.919Z,7.94
2022-12-31T12:37:21.731Z,8.09
2022-12-31T12:39:04.962Z,8.17
2022-12-31T12:40:37.040Z,8.16
2022-12-31T12:42:14.590Z,8.09
2022-12-31T12:43:46.840Z,8.05
2022-12-31T12:45:25.428Z,7.96
2022-12-31T12:46:58.745Z,7.86
2022-12-31T12:48:41.923Z,7.84
2022-12-31T12:50:17.822Z,7.86
2022-12-31T12:52:14.327Z,7.88
2022-12-31T12:54:40.202Z,7.87
2022-12-31T12:56:35.738Z,7.90
2022-12-31T12:58:26.467Z,7.81
2022-12-31T13:00:23.298Z,7.78
2022-12-31T13:02:01.099Z,7.80
2022-12-31T13:04:32.573Z,7.79
2022-12-31T13:06:27.102Z,7.73
2022-12-31T13:08:09.371Z,7.70
2022-12-31T13:09:59.227Z,7.65
2022-12-31T13:12:07.328Z,7.67
2022-12-31T13:13:45.948Z,7.74
2022-12-31T13:15:37.876Z,7.63
2022-12-31T13:17:12.667Z,7.56
2022-12-31T13:19:05.225Z,7.51
2022-12-31T13:21:03.673Z,7.50
2022-12-31T13:22:43.745Z,7.45
2022-12-31T13:24:29.500Z,7.42
2022-12-31T13:26:07.817Z,7.45
2022-12-31T13:27:44.650Z,7.38
2022-12-31T13:29:24.123Z,7.37
2022-12-31T13:31:06.518Z,7.37
2022-12-31T13:32:42.651Z,7.31
2022-12-31T13:34:26.008Z,7.28
2022-12-31T13:36:05.582Z,7.25
2022-12-31T13:37:41.320Z,7.25
2022-12-31T13:39:25.024Z,7.24
2022-12-31T13:41:14.951Z,7.21
2022-12-31T13:43:06.132Z,7.18
2022-12-31T13:44:46.157Z,7.19
2022-12-31T13:46:24.121Z,7.21
2022-12-31T13:48:05.616Z,7.19
2022-12-31T13:49:46.452Z,7.19
2022-12-31T13:51:27.869Z,7.19
2022-12-31T13:53:14.058Z,7.20
2022-12-31T13:55:01.680Z,7.19
2022-12-31T13:56:39.040Z,7.20
2022-12-31T13:58:31.620Z,7.21
2022-12-31T14:00:07.135Z,7.20
2022-12-31T14:02:26.666Z,7.20
2022-12-31T14:04:42.582Z,7.22
2022-12-31T14:06:19.200Z,7.20
2022-12-31T14:07:54.709Z,7.23
2022-12-31T14:09:30.674Z,7.23
2022-12-31T14:11:28.074Z,7.23
2022-12-31T14:13:15.826Z,7.22
2022-12-31T14:15:52.296Z,7.19
2022-12-31T14:17:24.503Z,7.22
2022-12-31T14:19:08.084Z,7.22
2022-12-31T14:20:52.640Z,7.22
2022-12-31T14:22:43.049Z,7.23
2022-12-31T14:24:28.897Z,7.23
2022-12-31T14:26:19.763Z,7.22
2022-12-31T14:27:54.812Z,7.21
2022-12-31T14:29:48.274Z,7.24
2022-12-31T14:31:42.462Z,7.25
2022-12-31T14:33:27.635Z,7.26
2022-12-31T14:35:05.888Z,7.26
2022-12-31T14:37:07.764Z,7.26
2022-12-31T14:38:47.576Z,7.26
2022-12-31T14:40:32.834Z,7.26
2022-12-31T14:42:10.671Z,7.30
2022-12-31T14:44:20.309Z,7.33
2022-12-31T14:46:01.390Z,7.43
2022-12-31T14:47:43.718Z,7.50
2022-12-31T14:49:28.040Z,7.55
2022-12-31T14:51:02.490Z,7.61
2022-12-31T14:52:48.927Z,7.67
2022-12-31T14:54:56.927Z,7.69
2022-12-31T14:56:45.402Z,7.67
2022-12-31T14:58:37.203Z,7.67
2022-12-31T15:00:21.844Z,7.68
2022-12-31T15:01:55.237Z,7.67
2022-12-31T15:03:45.095Z,7.68
2022-12-31T15:05:21.566Z,7.70
2022-12-31T15:07:22.008Z,7.71
2022-12-31T15:09:31.174Z,7.77
2022-12-31T15:11:12.175Z,7.82
2022-12-31T15:13:07.149Z,7.85
2022-12-31T15:14:54.985Z,7.89
2022-12-31T15:16:41.279Z,7.93
2022-12-31T15:18:22.283Z,7.93
2022-12-31T15:20:17.676Z,7.97
2022-12-31T15:21:58.826Z,7.98
2022-12-31T15:23:36.941Z,8.02
2022-12-31T15:25:27.550Z,8.05
2022-12-31T15:27:03.177Z,8.07
2022-12-31T15:28:41.634Z,8.10
2022-12-31T15:30:28.591Z,8.13
2022-12-31T15:32:03.892Z,8.15
2022-12-31T15:33:41.646Z,8.16
2022-12-31T15:35:22.740Z,8.18
2022-12-31T15:36:57.996Z,8.17
2022-12-31T15:38:37.105Z,8.18
2022-12-31T15:40:15.368Z,8.18
2022-12-31T15:42:27.593Z,8.18
2022-12-31T15:43:52.883Z,8.18
2022-12-31T15:45:32.164Z,8.20
2022-12-31T15:47:17.752Z,8.21
2022-12-31T15:49:03.709Z,8.22
2022-12-31T15:50:39.552Z,8.23
2022-12-31T15:52:38.213Z,8.24
2022-12-31T15:54:20.531Z,8.25
2022-12-31T15:55:54.999Z,8.24
2022-12-31T15:57:54.561Z,8.26
2022-12-31T15:59:27.352Z,8.27
2022-12-31T16:01:14.889Z,8.26
2022-12-31T16:02:49.014Z,8.25
2022-12-31T16:04:24.639Z,8.25
2022-12-31T16:06:02.765Z,8.26
2022-12-31T16:07:35.671Z,8.26
2022-12-31T16:09:19.942Z,8.26
2022-12-31T16:10:53.909Z,8.26
2022-12-31T16:12:33.571Z,8.28
2022-12-31T16:14:07.610Z,8.31
2022-12-31T16:15:40.538Z,8.34
2022-12-31T16:17:27.591Z,8.34
2022-12-31T16:19:00.455Z,8.36
2022-12-31T16:20:34.087Z,8.35
2022-12-31T16:22:14.999Z,8.35
2022-12-31T16:23:51.857Z,8.35
2022-12-31T16:25:33.568Z,8.38
2022-12-31T16:27:09.273Z,8.41
2022-12-31T16:28:43.280Z,8.40
2022-12-31T16:30:25.240Z,8.40
2022-12-31T16:32:02.200Z,8.38
2022-12-31T16:33:34.513Z,8.40
2022-12-31T16:35:32.402Z,8.37
2022-12-31T16:37:13.764Z,8.37
2022-12-31T16:38:45.930Z,8.37
2022-12-31T16:40:21.420Z,8.33
2022-12-31T16:42:09.108Z,8.32
2022-12-31T16:43:43.349Z,8.28
2022-12-31T16:45:25.151Z,8.28
2022-12-31T16:46:59.682Z,8.27
2022-12-31T16:48:31.808Z,8.27
2022-12-31T16:50:16.600Z,8.26
2022-12-31T16:51:49.701Z,8.27
2022-12-31T16:53:26.202Z,8.28
2022-12-31T16:54:59.122Z,8.28
2022-12-31T16:56:38.316Z,8.31
2022-12-31T16:58:21.528Z,8.30
2022-12-31T17:00:02.928Z,8.28
2022-12-31T17:01:37.440Z,8.30
2022-12-31T17:03:22.357Z,8.26
2022-12-31T17:04:56.487Z,8.27
2022-12-31T17:06:32.186Z,8.23
2022-12-31T17:08:29.335Z,8.18
2022-12-31T17:10:26.010Z,8.12
2022-12-31T17:12:12.325Z,8.09
2022-12-31T17:13:53.811Z,8.00
2022-12-31T17:15:42.495Z,7.93
2022-12-31T17:17:22.973Z,7.88
2022-12-31T17:18:55.172Z,7.83
2022-12-31T17:20:32.809Z,7.75
2022-12-31T17:22:10.360Z,7.69
2022-12-31T17:23:53.228Z,7.67
2022-12-31T17:25:28.821Z,7.63
2022-12-31T17:27:06.297Z,7.56
2022-12-31T17:28:50.077Z,7.51
2022-12-31T17:30:27.745Z,7.50
2022-12-31T17:32:06.756Z,7.47
2022-12-31T17:33:38.922Z,7.49
2022-12-31T17:35:44.017Z,7.43
2022-12-31T17:37:18.813Z,7.42
2022-12-31T17:38:51.315Z,7.40
2022-12-31T17:40:53.380Z,7.38
2022-12-31T17:42:34.712Z,7.32
2022-12-31T17:44:06.774Z,7.27
2022-12-31T17:45:39.737Z,7.26
2022-12-31T17:47:16.104Z,7.25
2022-12-31T17:48:54.221Z,7.25
2022-12-31T17:50:27.916Z,7.22
2022-12-31T17:52:00.181Z,7.19
2022-12-31T17:53:32.443Z,7.18
2022-12-31T17:55:04.932Z,7.19
2022-12-31T17:56:37.046Z,7.22
2022-12-31T17:58:18.839Z,7.24
2022-12-31T17:59:50.960Z,7.28
2022-12-31T18:01:23.804Z,7.34
2022-12-31T18:02:56.107Z,7.39
2022-12-31T18:04:28.603Z,7.42
2022-12-31T18:06:00.826Z,7.44
2022-12-31T18:07:33.229Z,7.46
2022-12-31T18:09:05.279Z,7.45
2022-12-31T18:10:39.770Z,7.39
2022-12-31T18:12:14.420Z,7.39
2022-12-31T18:13:46.885Z,7.37
2022-12-31T18:15:24.207Z,7.34
2022-12-31T18:16:56.302Z,7.28
2022-12-31T18:18:30.696Z,7.26
2022-12-31T18:20:05.363Z,7.26
2022-12-31T18:21:38.372Z,7.28
2022-12-31T18:23:22.836Z,7.26
2022-12-31T18:24:54.991Z,7.25
2022-12-31T18:26:27.671Z,7.21
2022-12-31T18:27:59.775Z,7.23
2022-12-31T18:29:31.937Z,7.22
2022-12-31T18:31:04.177Z,7.26
2022-12-31T18:32:37.560Z,7.25
2022-12-31T18:34:12.860Z,7.27
2022-12-31T18:37:37.128Z,7.24
2022-12-31T18:39:09.548Z,7.25
2022-12-31T18:40:46.549Z,7.23
2022-12-31T18:42:20.302Z,7.27
2022-12-31T18:43:52.558Z,7.27
2022-12-31T18:45:25.880Z,7.24
2022-12-31T18:46:58.301Z,7.21
2022-12-31T18:48:30.429Z,7.20
2022-12-31T18:50:02.469Z,7.19
2022-12-31T18:51:36.074Z,7.17
2022-12-31T18:53:13.759Z,7.12
2022-12-31T18:54:46.462Z,7.09
2022-12-31T18:56:20.231Z,7.09
2022-12-31T18:57:52.582Z,7.08
2022-12-31T18:59:26.702Z,7.06
2022-12-31T19:00:58.952Z,7.09
2022-12-31T19:02:31.384Z,7.08
2022-12-31T19:04:10.931Z,7.05
2022-12-31T19:05:43.419Z,7.00
2022-12-31T19:07:15.582Z,7.01
2022-12-31T19:08:47.662Z,6.98
2022-12-31T19:10:20.213Z,6.99
2022-12-31T19:11:52.339Z,6.97
2022-12-31T19:13:24.569Z,6.99
2022-12-31T19:14:56.633Z,7.01
2022-12-31T19:16:29.024Z,7.01
2022-12-31T19:18:02.575Z,7.02
2022-12-31T19:19:35.105Z,7.01
2022-12-31T19:21:14.366Z,6.96
2022-12-31T19:22:46.573Z,6.94
2022-12-31T19:24:21.540Z,6.94
2022-12-31T19:25:53.702Z,6.94
2022-12-31T19:27:26.909Z,6.91
2022-12-31T19:28:59.015Z,6.92
2022-12-31T19:30:33.449Z,6.94
2022-12-31T19:32:05.974Z,6.96
2022-12-31T19:33:38.125Z,7.01
2022-12-31T19:35:13.408Z,7.03
2022-12-31T19:36:46.413Z,7.06
2022-12-31T19:38:24.414Z,7.11
2022-12-31T19:39:56.542Z,7.13
2022-12-31T19:41:28.653Z,7.11
2022-12-31T19:43:00.799Z,7.10
2022-12-31T19:44:33.013Z,7.12
2022-12-31T19:46:05.328Z,7.16
2022-12-31T19:47:37.527Z,7.13
2022-12-31T19:49:14.176Z,7.15
2022-12-31T19:50:49.525Z,7.14
2022-12-31T19:52:21.651Z,7.10
2022-12-31T19:53:53.852Z,7.06
2022-12-31T19:55:26.423Z,7.01
2022-12-31T19:56:58.556Z,6.98
2022-12-31T19:58:30.684Z,6.95
2022-12-31T20:00:05.404Z,6.90
2022-12-31T20:01:43.945Z,6.90
2022-12-31T20:03:16.435Z,6.88
2022-12-31T20:04:48.659Z,6.90
2022-12-31T20:06:20.840Z,6.88
2022-12-31T20:07:53.021Z,6.88
2022-12-31T20:09:25.134Z,6.89
2022-12-31T20:10:59.014Z,6.91
2022-12-31T20:12:31.441Z,6.93
2022-12-31T20:14:03.661Z,6.94
2022-12-31T20:15:39.219Z,6.97
2022-12-31T20:17:11.478Z,6.96
2022-12-31T20:18:45.180Z,6.96
2022-12-31T20:20:17.370Z,6.95
2022-12-31T20:21:49.582Z,6.97
2022-12-31T20:23:21.655Z,6.99
2022-12-31T20:24:53.835Z,6.97
2022-12-31T20:26:26.071Z,6.94
2022-12-31T20:27:58.211Z,6.90
2022-12-31T20:29:30.403Z,6.87
2022-12-31T20:31:16.922Z,6.86
2022-12-31T20:32:52.167Z,6.85
2022-12-31T20:34:24.406Z,6.85
2022-12-31T20:36:01.996Z,6.83
2022-12-31T20:37:34.157Z,6.81
2022-12-31T20:39:07.115Z,6.79
2022-12-31T20:40:46.187Z,6.79
2022-12-31T20:42:18.930Z,6.79
2022-12-31T20:43:51.482Z,6.80
2022-12-31T20:45:24.885Z,6.84
2022-12-31T20:46:57.258Z,6.86
2022-12-31T20:48:31.336Z,6.90
2022-12-31T20:50:12.471Z,6.93
2022-12-31T20:51:50.333Z,6.95
2022-12-31T20:53:24.625Z,6.97
2022-12-31T20:54:56.671Z,6.99
2022-12-31T20:56:31.671Z,6.99
2022-12-31T20:58:05.088Z,7.01
2022-12-31T20:59:37.425Z,7.04
2022-12-31T21:01:11.095Z,7.05
2022-12-31T21:02:46.670Z,7.09
2022-12-31T21:04:24.429Z,7.06
2022-12-31T21:05:56.838Z,7.04
2022-12-31T21:07:29.052Z,7.07
2022-12-31T21:09:03.215Z,7.12
2022-12-31T21:10:35.806Z,7.09
2022-12-31T21:12:28.830Z,7.05
2022-12-31T21:14:01.605Z,7.05
2022-12-31T21:15:33.757Z,7.07
2022-12-31T21:17:05.910Z,7.10
2022-12-31T21:18:38.052Z,7.07
2022-12-31T21:20:11.001Z,7.10
2022-12-31T21:21:43.215Z,7.10
2022-12-31T21:23:16.592Z,7.11
2022-12-31T21:24:48.753Z,7.11
2022-12-31T21:26:20.878Z,7.12
2022-12-31T21:27:53.035Z,7.11
2022-12-31T21:29:26.244Z,7.10
2022-12-31T21:31:03.277Z,7.07
2022-12-31T21:32:35.483Z,7.04
2022-12-31T21:34:09.486Z,7.03
2022-12-31T21:35:48.348Z,7.05
2022-12-31T21:37:26.586Z,7.06
2022-12-31T21:39:18.622Z,7.03
2022-12-31T21:40:50.715Z,7.03
2022-12-31T21:42:22.919Z,7.04
2022-12-31T21:43:55.227Z,7.05
2022-12-31T21:45:27.285Z,7.03
2022-12-31T21:47:41.310Z,7.03
2022-12-31T21:49:13.799Z,7.05
2022-12-31T21:51:04.025Z,7.01
2022-12-31T21:52:36.183Z,6.99
2022-12-31T21:54:28.309Z,6.96
2022-12-31T21:56:09.520Z,6.90
2022-12-31T21:58:15.504Z,6.85
2022-12-31T22:00:24.048Z,6.78
2022-12-31T22:02:04.870Z,6.71
2022-12-31T22:03:37.169Z,6.72
2022-12-31T22:05:18.514Z,6.73
2022-12-31T22:06:53.629Z,6.70
2022-12-31T22:08:26.586Z,6.71
2022-12-31T22:09:58.588Z,6.71
2022-12-31T22:11:30.772Z,6.71
2022-12-31T22:13:02.918Z,6.71
2022-12-31T22:14:35.129Z,6.73
2022-12-31T22:16:07.858Z,6.72